Time;durP1;ratioP1;P1;durP2;ratioP2;P2;SDS_P1;SDS_P2;PMS_P1;PMS_P2;Temp;Humidity;BMP_temperature;BMP_pressure;BME280_temperature;BME280_humidity;BME280_pressure;Samples;Min_cycle;Max_cycle;Signal;HPM_P1;HPM_P2
2022/04/22 00:00:29;;;;;;;12.30;7.13;;;;;;;5.51;100.00;95093.38;5012158;28;20779;-78
2022/04/22 00:02:55;;;;;;;11.50;6.93;;;;;;;5.44;100.00;95093.97;5015890;28;20052;-78
2022/04/22 00:05:21;;;;;;;45.07;28.97;;;;;;;5.40;100.00;95091.84;5008598;28;20154;-78
2022/04/22 00:07:47;;;;;;;15.17;9.73;;;;;;;5.41;100.00;95086.47;5005737;28;20546;-79
2022/04/22 00:10:13;;;;;;;12.60;7.93;;;;;;;5.37;100.00;95087.75;5021606;28;20029;-78
2022/04/22 00:12:39;;;;;;;11.27;7.33;;;;;;;5.29;100.00;95090.31;5024334;28;20056;-79
2022/04/22 00:15:06;;;;;;;10.77;7.73;;;;;;;5.30;100.00;95085.91;5010905;28;20037;-79
2022/04/22 00:17:32;;;;;;;12.00;8.43;;;;;;;5.33;100.00;95086.44;5047292;28;20052;-78
2022/04/22 00:19:58;;;;;;;12.20;7.73;;;;;;;5.36;100.00;95073.06;5028404;28;20112;-79
2022/04/22 00:22:23;;;;;;;11.37;8.03;;;;;;;5.33;100.00;95075.16;5017190;28;20021;-79
2022/04/22 00:24:49;;;;;;;15.03;8.83;;;;;;;5.27;100.00;95076.63;5015939;28;20094;-79
2022/04/22 00:27:15;;;;;;;13.03;8.60;;;;;;;5.17;100.00;95076.72;5021388;28;20393;-79
2022/04/22 00:29:41;;;;;;;13.50;8.60;;;;;;;5.18;100.00;95074.94;5016538;28;20789;-79
2022/04/22 00:32:07;;;;;;;13.40;8.67;;;;;;;5.10;100.00;95067.91;5030570;28;20064;-79
2022/04/22 00:34:33;;;;;;;16.50;9.30;;;;;;;5.25;100.00;95069.94;5017683;28;20020;-78
2022/04/22 00:36:59;;;;;;;13.33;9.53;;;;;;;5.06;100.00;95073.56;5030651;28;20025;-78
2022/04/22 00:39:25;;;;;;;16.13;8.83;;;;;;;5.00;100.00;95072.41;5020821;28;20496;-78
2022/04/22 00:41:50;;;;;;;11.97;8.37;;;;;;;4.96;100.00;95077.09;5004496;28;20569;-78
2022/04/22 00:44:16;;;;;;;13.17;9.87;;;;;;;4.96;100.00;95063.25;5035137;28;20033;-78
2022/04/22 00:46:42;;;;;;;14.13;8.97;;;;;;;4.93;100.00;95058.38;5032376;28;20029;-78
2022/04/22 00:49:07;;;;;;;14.93;9.83;;;;;;;4.91;100.00;95062.91;5015503;28;20136;-78
2022/04/22 00:51:33;;;;;;;14.17;9.77;;;;;;;4.83;100.00;95063.66;5019463;28;20036;-77
2022/04/22 00:54:02;;;;;;;13.87;8.80;;;;;;;4.83;100.00;95058.47;5041805;28;20029;-79
2022/04/22 00:56:28;;;;;;;15.73;10.60;;;;;;;4.91;100.00;95053.28;5036041;28;20028;-79
2022/04/22 00:58:57;;;;;;;15.27;9.90;;;;;;;4.81;100.00;95052.56;5035381;28;20060;-79
2022/04/22 01:01:23;;;;;;;14.63;10.43;;;;;;;4.75;100.00;95037.56;5035407;28;21877;-78
2022/04/22 01:12:09;;;;;;;14.77;11.47;;;;;;;4.71;100.00;95031.03;5026488;28;20040;-78
2022/04/22 01:14:35;;;;;;;16.93;11.23;;;;;;;4.73;100.00;95027.31;5044072;28;20559;-79
2022/04/22 01:17:01;;;;;;;17.57;12.17;;;;;;;4.66;100.00;95012.41;5038066;28;20036;-79
2022/04/22 01:19:28;;;;;;;15.07;11.07;;;;;;;4.67;100.00;95016.69;5052798;28;20029;-78
2022/04/22 01:21:56;;;;;;;16.27;12.23;;;;;;;4.60;100.00;95015.66;5036133;28;20037;-77
2022/04/22 01:24:23;;;;;;;17.23;12.33;;;;;;;4.58;100.00;95005.38;5030392;28;20486;-78
2022/04/22 01:26:50;;;;;;;16.90;12.17;;;;;;;4.61;100.00;95006.88;5014411;28;20543;-79
2022/04/22 01:29:16;;;;;;;17.03;11.40;;;;;;;4.57;100.00;95001.16;5019710;28;21129;-78
2022/04/22 01:31:45;;;;;;;17.97;12.60;;;;;;;4.62;100.00;95006.69;5052160;28;20447;-78
2022/04/22 01:34:11;;;;;;;17.87;12.10;;;;;;;4.58;100.00;95004.56;5028711;28;20108;-78
2022/04/22 01:36:37;;;;;;;16.23;11.97;;;;;;;4.57;100.00;95000.34;5047677;28;20478;-77
2022/04/22 01:39:03;;;;;;;19.70;13.63;;;;;;;4.44;100.00;94998.94;5019653;28;20105;-78
2022/04/22 01:41:29;;;;;;;17.37;12.70;;;;;;;4.44;100.00;94998.94;5053752;28;20543;-78
2022/04/22 01:43:55;;;;;;;20.03;14.03;;;;;;;4.37;100.00;94997.09;5027060;28;20033;-80
2022/04/22 01:46:21;;;;;;;23.90;13.50;;;;;;;4.29;100.00;94992.63;5029847;28;20459;-78
2022/04/22 01:48:47;;;;;;;25.93;14.23;;;;;;;4.32;100.00;94988.91;5033707;28;20865;-78
2022/04/22 01:51:12;;;;;;;20.87;13.20;;;;;;;4.33;100.00;94987.97;5016485;28;20139;-77
2022/04/22 01:53:39;;;;;;;20.30;14.30;;;;;;;4.30;100.00;94988.28;5028053;28;20719;-78
2022/04/22 01:56:06;;;;;;;20.27;14.03;;;;;;;4.29;100.00;94987.44;5007066;28;20116;-79
2022/04/22 01:58:32;;;;;;;18.00;13.17;;;;;;;4.20;100.00;94977.94;5009845;28;20466;-78
2022/04/22 02:00:58;;;;;;;20.93;14.20;;;;;;;4.20;100.00;94980.53;5024338;28;20958;-79
2022/04/22 02:03:24;;;;;;;20.07;14.57;;;;;;;4.18;100.00;94975.47;5024283;28;20079;-78
2022/04/22 02:05:50;;;;;;;20.87;14.57;;;;;;;4.18;100.00;94967.66;5009943;28;20475;-79
2022/04/22 02:08:16;;;;;;;23.73;15.43;;;;;;;4.21;100.00;94974.38;5022948;28;20039;-78
2022/04/22 02:10:43;;;;;;;23.10;16.03;;;;;;;4.17;100.00;94971.25;5038190;28;20029;-78
2022/04/22 02:13:09;;;;;;;22.90;17.17;;;;;;;4.16;100.00;94966.22;5004087;28;20486;-79
2022/04/22 02:15:35;;;;;;;23.83;15.30;;;;;;;4.23;100.00;94967.25;5002335;28;20475;-78
2022/04/22 02:18:01;;;;;;;22.33;15.40;;;;;;;4.25;100.00;94962.69;5011000;28;20025;-79
2022/04/22 02:20:28;;;;;;;24.20;17.30;;;;;;;4.27;100.00;94955.56;5015660;28;20456;-78
2022/04/22 02:22:54;;;;;;;22.20;16.23;;;;;;;4.27;100.00;94958.16;5032478;28;20025;-78
2022/04/22 02:25:19;;;;;;;26.90;17.70;;;;;;;4.15;100.00;94957.56;5019823;28;20466;-79
2022/04/22 02:30:30;;;;;;;23.67;16.10;;;;;;;4.18;100.00;94959.06;5031067;28;20562;-78
2022/04/22 02:32:56;;;;;;;26.67;16.73;;;;;;;4.15;100.00;94949.75;5032533;28;20494;-78
2022/04/22 02:35:22;;;;;;;22.63;17.07;;;;;;;4.11;100.00;94948.44;5035957;28;20442;-78
2022/04/22 02:37:52;;;;;;;28.70;17.60;;;;;;;4.12;100.00;94950.06;5018161;28;20036;-78
2022/04/22 02:45:48;;;;;;;29.27;19.57;;;;;;;4.05;100.00;94932.59;5052385;28;21010;-78
2022/04/22 02:48:14;;;;;;;24.63;17.63;;;;;;;4.00;100.00;94920.06;5021717;28;20447;-78
2022/04/22 02:50:39;;;;;;;24.73;17.47;;;;;;;3.89;100.00;94917.69;5035531;28;20092;-78
2022/04/22 02:53:05;;;;;;;27.73;18.97;;;;;;;3.91;100.00;94913.16;5025441;28;20064;-77
2022/04/22 02:55:31;;;;;;;29.53;20.57;;;;;;;3.90;100.00;94908.94;5034774;28;20036;-78
2022/04/22 02:57:57;;;;;;;35.23;20.87;;;;;;;3.83;100.00;94903.53;5042295;28;20599;-79
2022/04/22 03:00:23;;;;;;;31.30;19.70;;;;;;;3.88;100.00;94901.28;5038598;28;20456;-78
2022/04/22 03:02:49;;;;;;;29.60;19.83;;;;;;;3.83;100.00;94898.31;5015853;28;20116;-78
2022/04/22 03:05:16;;;;;;;28.23;20.80;;;;;;;3.82;100.00;94886.25;5026693;28;20466;-78
2022/04/22 03:07:41;;;;;;;33.23;21.80;;;;;;;3.93;100.00;94904.25;5032492;28;20494;-78
2022/04/22 03:10:07;;;;;;;29.33;21.27;;;;;;;3.97;100.00;94905.56;5028673;28;20467;-78
2022/04/22 03:12:34;;;;;;;29.90;19.40;;;;;;;3.95;100.00;94907.50;5019531;28;20033;-78
2022/04/22 03:15:00;;;;;;;30.63;21.77;;;;;;;3.95;100.00;94915.31;5024857;28;20490;-78
2022/04/22 03:17:26;;;;;;;32.63;21.30;;;;;;;3.98;100.00;94917.59;5035336;28;20443;-78
2022/04/22 03:19:52;;;;;;;30.70;20.83;;;;;;;3.94;100.00;94915.47;5034905;28;20467;-79
2022/04/22 03:22:18;;;;;;;31.83;21.73;;;;;;;3.84;100.00;94915.53;5015817;28;20514;-78
2022/04/22 03:24:43;;;;;;;32.73;22.47;;;;;;;3.85;100.00;94909.38;5024690;28;20040;-78
2022/04/22 03:27:10;;;;;;;29.77;20.27;;;;;;;3.84;100.00;94907.75;5039766;28;20036;-78
2022/04/22 03:29:36;;;;;;;28.73;21.20;;;;;;;3.77;100.00;94910.13;5024692;28;20497;-78
2022/04/22 03:32:02;;;;;;;30.90;21.10;;;;;;;3.77;100.00;94917.13;5022251;28;20537;-78
2022/04/22 03:34:28;;;;;;;29.87;20.10;;;;;;;3.65;100.00;94920.91;5020545;28;20024;-78
2022/04/22 03:36:55;;;;;;;32.80;22.17;;;;;;;3.59;100.00;94921.50;5038243;28;20479;-78
2022/04/22 03:39:20;;;;;;;32.30;23.10;;;;;;;3.62;100.00;94916.00;5046454;28;20040;-78
2022/04/22 03:41:46;;;;;;;33.03;20.90;;;;;;;3.63;100.00;94922.84;5017465;28;20987;-78
2022/04/22 03:44:12;;;;;;;30.57;20.10;;;;;;;3.62;100.00;94918.59;5036053;28;20071;-78
2022/04/22 03:46:38;;;;;;;29.93;19.70;;;;;;;3.51;100.00;94914.44;5031964;28;20029;-78
2022/04/22 03:49:04;;;;;;;30.87;20.80;;;;;;;3.41;100.00;94909.31;5036489;28;20470;-78
2022/04/22 03:51:31;;;;;;;29.47;21.67;;;;;;;3.37;100.00;94913.19;5057982;28;20363;-78
2022/04/22 03:53:57;;;;;;;31.67;22.23;;;;;;;3.42;100.00;94920.53;5033855;28;20519;-78
2022/04/22 03:59:07;;;;;;;33.07;21.60;;;;;;;3.28;100.00;94908.84;5038774;28;20539;-78
2022/04/22 04:01:33;;;;;;;34.37;22.87;;;;;;;3.33;100.00;94906.66;5053106;28;20483;-78
2022/04/22 04:03:59;;;;;;;33.23;22.83;;;;;;;3.34;100.00;94907.47;5055223;28;20128;-78
2022/04/22 04:06:26;;;;;;;33.73;24.33;;;;;;;3.34;100.00;94908.28;5035611;28;20482;-78
2022/04/22 04:17:10;;;;;;;34.60;23.70;;;;;;;3.25;100.00;94896.16;5036458;28;20487;-78
2022/04/22 04:25:05;;;;;;;36.53;24.63;;;;;;;3.26;100.00;94903.00;5038931;28;20475;-79
2022/04/22 04:27:31;;;;;;;37.07;25.63;;;;;;;3.22;100.00;94899.03;5022505;28;20514;-77
2022/04/22 04:29:57;;;;;;;35.93;24.77;;;;;;;3.28;100.00;94898.47;5060748;28;20452;-77
2022/04/22 04:32:22;;;;;;;38.67;25.80;;;;;;;3.36;100.00;94902.94;5028289;28;20029;-78
2022/04/22 04:34:48;;;;;;;34.87;24.17;;;;;;;3.39;100.00;94906.06;5033992;28;20032;-77
2022/04/22 04:37:14;;;;;;;34.50;24.47;;;;;;;3.38;100.00;94904.41;5035659;28;20033;-79
2022/04/22 04:39:40;;;;;;;39.30;25.73;;;;;;;3.34;100.00;94900.47;5029675;28;20021;-78
2022/04/22 04:42:08;;;;;;;35.83;24.97;;;;;;;3.43;100.00;94893.59;5012666;28;20499;-79
2022/04/22 04:44:36;;;;;;;37.43;25.73;;;;;;;3.44;100.00;94898.63;5013471;28;20450;-77
2022/04/22 04:47:02;;;;;;;37.97;25.93;;;;;;;3.46;100.00;94899.31;5033055;28;20467;-78
2022/04/22 04:49:29;;;;;;;37.63;25.07;;;;;;;3.39;100.00;94900.88;5016192;28;20462;-78
2022/04/22 04:51:54;;;;;;;34.93;24.87;;;;;;;3.45;100.00;94910.66;5052768;28;20470;-78
2022/04/22 04:54:20;;;;;;;35.67;24.97;;;;;;;3.39;100.00;94898.28;5011244;28;20567;-77
2022/04/22 04:56:46;;;;;;;35.80;26.23;;;;;;;3.38;100.00;94904.41;5018417;28;20132;-79
2022/04/22 04:59:12;;;;;;;40.33;24.90;;;;;;;3.43;100.00;94897.00;5021106;28;20485;-78
2022/04/22 05:01:37;;;;;;;37.20;24.87;;;;;;;3.44;100.00;94896.03;5034902;28;20028;-79
2022/04/22 05:04:03;;;;;;;41.87;28.43;;;;;;;3.41;100.00;94901.53;5031777;28;20119;-78
2022/04/22 05:06:33;;;;;;;40.87;26.93;;;;;;;3.50;100.00;94899.81;5017806;28;20406;-77
2022/04/22 05:08:59;;;;;;;40.90;28.60;;;;;;;3.55;100.00;94897.56;5019111;28;20029;-77
2022/04/22 05:11:25;;;;;;;43.37;29.77;;;;;;;3.51;100.00;94894.47;5026918;28;20500;-78
2022/04/22 05:13:51;;;;;;;39.00;26.30;;;;;;;3.58;100.00;94889.50;5018959;28;20038;-78
2022/04/22 05:16:17;;;;;;;37.20;24.67;;;;;;;3.70;100.00;94896.09;5017477;28;20518;-78
2022/04/22 05:18:43;;;;;;;37.33;25.27;;;;;;;3.75;100.00;94891.25;5014103;28;20480;-79
2022/04/22 05:21:08;;;;;;;37.00;25.27;;;;;;;3.84;100.00;94889.53;5032123;28;20040;-78
2022/04/22 05:23:34;;;;;;;40.23;27.20;;;;;;;3.85;100.00;94890.34;5013223;28;20025;-78
2022/04/22 05:26:04;;;;;;;35.20;25.20;;;;;;;4.01;100.00;94886.09;5035686;28;20040;-78
2022/04/22 05:28:30;;;;;;;37.50;26.13;;;;;;;4.18;100.00;94881.81;5045766;28;20037;-79
2022/04/22 05:33:40;;;;;;;36.83;24.80;;;;;;;4.45;100.00;94877.41;5026024;28;20087;-78
2022/04/22 05:36:06;;;;;;;39.57;26.27;;;;;;;4.64;100.00;94889.38;5036511;28;20552;-78
2022/04/22 05:38:34;;;;;;;32.13;23.87;;;;;;;4.90;100.00;94887.53;5053356;28;20024;-78
2022/04/22 05:41:00;;;;;;;34.47;24.13;;;;;;;5.15;100.00;94885.81;5040710;28;20040;-78
2022/04/22 05:43:28;;;;;;;32.17;23.33;;;;;;;5.17;100.00;94878.66;5025291;28;20818;-77
2022/04/22 05:45:54;;;;;;;36.10;25.53;;;;;;;5.47;100.00;94879.06;5019201;28;20447;-79
2022/04/22 05:48:19;;;;;;;35.10;23.73;;;;;;;5.64;100.00;94875.47;5055895;28;20457;-78
2022/04/22 05:50:45;;;;;;;30.73;23.27;;;;;;;6.17;100.00;94873.38;5052980;28;20103;-78
2022/04/22 05:53:11;;;;;;;30.87;22.63;;;;;;;6.05;100.00;94872.09;5029604;28;20024;-79
2022/04/22 05:55:37;;;;;;;29.33;22.60;;;;;;;5.97;100.00;94877.28;5013320;28;20036;-78
2022/04/22 05:58:03;;;;;;;29.87;21.30;;;;;;;6.31;100.00;94869.28;5013560;28;20056;-79
2022/04/22 06:00:31;;;;;;;28.40;22.57;;;;;;;6.53;100.00;94870.34;5037574;28;20037;-78
2022/04/22 06:02:58;;;;;;;29.37;21.13;;;;;;;6.46;100.00;94874.63;5014233;28;20101;-79
2022/04/22 06:05:24;;;;;;;34.67;24.27;;;;;;;6.69;100.00;94859.84;5033339;28;20037;-78
2022/04/22 06:10:38;;;;;;;28.77;20.70;;;;;;;6.59;100.00;94852.22;5024183;28;20029;-78
2022/04/22 06:13:04;;;;;;;27.33;20.73;;;;;;;6.86;100.00;94855.38;5048421;28;20048;-78
2022/04/22 06:15:31;;;;;;;25.13;19.33;;;;;;;7.13;100.00;94856.72;5013395;28;20124;-78
2022/04/22 06:17:58;;;;;;;27.13;20.47;;;;;;;7.47;100.00;94845.06;5038619;28;20061;-77
2022/04/22 06:20:24;;;;;;;28.33;19.07;;;;;;;7.25;100.00;94854.53;5008076;28;20044;-78
2022/04/22 06:22:50;;;;;;;24.53;18.17;;;;;;;7.66;100.00;94852.47;5029987;28;20094;-80
2022/04/22 06:25:16;;;;;;;26.13;19.20;;;;;;;7.66;100.00;94851.66;5012716;28;20453;-78
2022/04/22 06:27:45;;;;;;;27.13;18.87;;;;;;;8.06;100.00;94837.41;5030606;28;20433;-77
2022/04/22 06:30:13;;;;;;;23.50;18.73;;;;;;;8.67;100.00;94842.53;5031589;28;20025;-77
2022/04/22 06:32:41;;;;;;;25.50;18.47;;;;;;;8.32;100.00;94851.91;5026360;28;20036;-77
2022/04/22 06:35:08;;;;;;;23.23;17.97;;;;;;;7.79;100.00;94847.44;5027457;28;20048;-78
2022/04/22 06:37:48;;;;;;;21.90;17.30;;;;;;;8.48;100.00;94843.88;5004205;28;20037;-77
2022/04/22 06:46:05;;;;;;;23.07;17.53;;;;;;;8.21;100.00;94853.13;5032362;28;20855;-79
2022/04/22 06:48:35;;;;;;;24.20;18.00;;;;;;;8.60;100.00;94839.81;4998510;28;20084;-78
2022/04/22 06:51:07;;;;;;;22.53;17.47;;;;;;;8.91;100.00;94846.66;5044948;28;20056;-78
2022/04/22 06:53:34;;;;;;;23.80;17.93;;;;;;;9.19;100.00;94847.63;5025378;28;20034;-78
2022/04/22 06:56:02;;;;;;;21.23;16.77;;;;;;;9.63;100.00;94844.06;5052080;28;20033;-78
2022/04/22 06:58:33;;;;;;;22.77;16.83;;;;;;;9.87;100.00;94848.09;5027337;28;20059;-77
2022/04/22 07:00:59;;;;;;;21.87;17.17;;;;;;;9.71;100.00;94850.97;5031522;28;20037;-79
2022/04/22 07:03:25;;;;;;;22.63;17.10;;;;;;;9.09;100.00;94848.94;5031546;28;20542;-81
2022/04/22 07:05:52;;;;;;;23.20;17.70;;;;;;;9.29;100.00;94843.88;5026670;28;20130;-78
2022/04/22 07:08:19;;;;;;;22.07;17.07;;;;;;;9.68;98.76;94846.91;5028358;28;20029;-78
2022/04/22 07:10:50;;;;;;;20.40;16.43;;;;;;;9.35;100.00;94843.13;5010524;28;20060;-78
2022/04/22 07:13:17;;;;;;;23.43;17.03;;;;;;;9.83;100.00;94835.56;5029140;28;20152;-78
2022/04/22 07:15:49;;;;;;;20.23;16.70;;;;;;;10.45;94.62;94829.56;5027814;28;20036;-78
2022/04/22 07:18:15;;;;;;;21.30;16.20;;;;;;;10.06;95.63;94838.78;5029439;28;20044;-78
2022/04/22 07:20:41;;;;;;;23.83;18.10;;;;;;;10.69;90.87;94836.16;5052516;28;20037;-78
2022/04/22 07:23:09;;;;;;;22.80;17.97;;;;;;;11.08;90.22;94825.03;5021656;28;20028;-78
2022/04/22 07:25:36;;;;;;;19.70;15.10;;;;;;;11.07;87.72;94827.88;5013148;28;20056;-78
2022/04/22 07:28:04;;;;;;;19.80;16.43;;;;;;;11.49;86.08;94824.13;5007444;28;20037;-79
2022/04/22 07:30:30;;;;;;;20.23;14.47;;;;;;;11.26;85.02;94826.28;5026304;28;20028;-78
2022/04/22 07:32:56;;;;;;;21.73;16.07;;;;;;;11.68;85.64;94824.38;5040471;28;20032;-78
2022/04/22 07:35:22;;;;;;;21.20;16.20;;;;;;;11.99;81.72;94821.19;5024461;28;20025;-79
2022/04/22 07:37:53;;;;;;;19.87;15.23;;;;;;;11.82;80.39;94827.84;5024220;28;20033;-78
2022/04/22 07:40:21;;;;;;;19.33;14.97;;;;;;;11.24;83.71;94817.81;5023046;28;20029;-78
2022/04/22 07:48:23;;;;;;;17.17;14.03;;;;;;;11.86;79.52;94810.66;5028620;28;20025;-78
2022/04/22 07:50:51;;;;;;;20.03;16.13;;;;;;;12.10;80.21;94806.59;5043864;28;20121;-80
2022/04/22 07:53:18;;;;;;;26.10;18.33;;;;;;;12.47;78.08;94808.59;5007116;28;20090;-79
2022/04/22 07:55:44;;;;;;;26.23;19.57;;;;;;;12.90;73.78;94805.41;5022436;28;20028;-79
2022/04/22 07:58:13;;;;;;;21.60;16.53;;;;;;;12.32;73.99;94804.56;5025748;28;20060;-78
2022/04/22 08:00:45;;;;;;;24.77;18.10;;;;;;;12.41;76.06;94804.16;5044026;28;20045;-79
2022/04/22 08:03:15;;;;;;;22.25;15.75;;;;;;;13.82;67.88;94799.91;5043741;28;20021;-79
2022/04/22 08:05:41;;;;;;;19.07;15.13;;;;;;;13.57;68.08;94802.50;5048802;28;20106;-80
2022/04/22 08:08:07;;;;;;;19.53;15.23;;;;;;;14.57;64.93;94792.75;5026967;28;20123;-79
2022/04/22 08:10:38;;;;;;;19.80;15.07;;;;;;;14.73;62.73;94790.59;5024761;28;20041;-78
2022/04/22 08:13:07;;;;;;;16.40;12.73;;;;;;;14.95;60.76;94790.94;5022222;28;20609;-79
2022/04/22 08:15:34;;;;;;;19.47;15.47;;;;;;;14.03;64.34;94796.88;5010437;28;20056;-78
2022/04/22 08:18:01;;;;;;;19.70;14.80;;;;;;;14.71;60.76;94788.13;5043835;28;20088;-79
2022/04/22 08:20:30;;;;;;;16.90;13.80;;;;;;;14.19;63.22;94795.53;5028247;28;20537;-79
2022/04/22 08:22:55;;;;;;;16.77;13.03;;;;;;;14.23;64.94;94796.72;5028976;28;20025;-79
2022/04/22 08:25:21;;;;;;;18.03;13.77;;;;;;;14.09;65.85;94795.22;5048621;28;20029;-79
2022/04/22 08:27:47;;;;;;;15.87;13.03;;;;;;;13.57;64.96;94791.94;5025942;28;20423;-79
2022/04/22 08:30:13;;;;;;;16.10;13.90;;;;;;;14.04;64.17;94797.69;5017433;28;20078;-79
2022/04/22 08:32:39;;;;;;;17.80;13.67;;;;;;;14.76;61.71;94783.00;5012243;28;20017;-79
2022/04/22 08:35:05;;;;;;;17.73;13.37;;;;;;;14.68;61.80;94787.78;5013592;28;20860;-78
2022/04/22 08:37:31;;;;;;;17.47;14.13;;;;;;;15.26;59.98;94779.38;5031536;28;20572;-78
2022/04/22 08:39:57;;;;;;;16.57;13.77;;;;;;;14.67;61.54;94771.09;5030154;28;20029;-79
2022/04/22 08:42:24;;;;;;;14.97;12.40;;;;;;;14.80;60.72;94775.44;5031974;28;20051;-78
2022/04/22 08:44:53;;;;;;;17.00;13.17;;;;;;;14.72;59.53;94784.47;5015779;28;20039;-78
2022/04/22 08:50:19;;;;;;;15.33;12.57;;;;;;;15.74;57.23;94766.06;5024860;28;20064;-79
2022/04/22 08:53:01;;;;;;;15.60;12.73;;;;;;;15.90;55.22;94767.25;5015865;28;20373;-79
2022/04/22 08:55:29;;;;;;;16.07;12.80;;;;;;;15.90;54.69;94763.81;5032512;28;20111;-80
2022/04/22 08:57:55;;;;;;;15.80;12.50;;;;;;;16.15;54.61;94755.63;5013389;28;20517;-82
2022/04/22 09:00:27;;;;;;;16.00;12.53;;;;;;;16.69;52.91;94754.44;5032219;28;20042;-80
2022/04/22 09:02:57;;;;;;;15.27;12.17;;;;;;;15.67;56.67;94770.66;5053146;28;20026;-79
2022/04/22 09:05:25;;;;;;;15.77;12.87;;;;;;;16.14;54.80;94751.38;5028712;28;20116;-79
2022/04/22 09:07:52;;;;;;;15.63;13.10;;;;;;;16.62;53.07;94753.75;5033462;28;20086;-80
2022/04/22 09:10:19;;;;;;;15.88;11.27;;;;;;;16.09;53.00;94746.75;5033785;28;20032;-79
2022/04/22 09:12:56;;;;;;;16.95;12.30;;;;;;;16.60;51.25;94745.25;5030408;28;20105;-79
2022/04/22 09:15:24;;;;;;;13.63;11.60;;;;;;;15.93;52.77;94744.78;5049520;28;20052;-79
2022/04/22 09:17:57;;;;;;;16.40;11.93;;;;;;;16.87;51.54;94740.25;5050724;28;20032;-79
2022/04/22 09:20:28;;;;;;;15.75;12.25;;;;;;;16.94;49.79;94740.13;5050245;28;20036;-80
2022/04/22 09:22:56;;;;;;;15.27;13.07;;;;;;;16.52;50.74;94734.97;5028796;28;20052;-79
2022/04/22 09:25:25;;;;;;;16.38;12.43;;;;;;;16.80;51.89;94730.78;5037455;28;20060;-79
2022/04/22 09:27:52;;;;;;;13.68;11.38;;;;;;;16.57;50.00;94727.13;5033414;28;20432;-79
2022/04/22 09:30:18;;;;;;;12.70;10.93;;;;;;;16.78;50.32;94731.03;5042008;28;20044;-79
2022/04/22 09:32:45;;;;;;;13.93;11.82;;;;;;;16.43;51.09;94726.56;5042922;28;20055;-79
2022/04/22 09:35:13;;;;;;;13.07;11.23;;;;;;;17.04;49.94;94727.06;5031451;28;20116;-82
2022/04/22 09:43:36;;;;;;;13.57;11.82;;;;;;;16.70;49.82;94723.41;5022778;28;20127;-79
2022/04/22 09:46:03;;;;;;;14.98;10.98;;;;;;;18.05;46.96;94716.59;5030255;28;20109;-79
2022/04/22 09:48:44;;;;;;;15.02;11.68;;;;;;;17.24;48.19;94715.19;5032008;28;20075;-79
2022/04/22 09:51:22;;;;;;;14.30;11.23;;;;;;;17.91;46.07;94704.69;5029237;28;20079;-80
2022/04/22 09:53:59;;;;;;;14.27;11.13;;;;;;;18.68;45.54;94700.41;5032112;28;20548;-79
2022/04/22 09:56:26;;;;;;;13.20;11.05;;;;;;;17.78;46.82;94700.47;5046291;28;20107;-79
2022/04/22 09:58:52;;;;;;;13.25;10.18;;;;;;;18.59;45.36;94706.16;5050497;28;20107;-79
2022/04/22 10:01:18;;;;;;;15.45;10.93;;;;;;;17.82;45.79;94709.56;5016932;28;20029;-81
2022/04/22 10:03:44;;;;;;;13.40;10.73;;;;;;;18.26;45.73;94696.41;5010411;28;20570;-80
2022/04/22 10:06:12;;;;;;;13.07;9.73;;;;;;;19.39;41.98;94692.47;5035099;28;20041;-79
2022/04/22 10:08:39;;;;;;;11.52;10.02;;;;;;;18.83;43.47;94692.66;5027597;28;20024;-78
2022/04/22 10:11:07;;;;;;;12.57;10.07;;;;;;;17.84;44.76;94704.84;5013329;28;20052;-79
2022/04/22 10:13:43;;;;;;;15.60;10.57;;;;;;;18.37;42.66;94695.47;5027131;28;20502;-80
2022/04/22 10:16:10;;;;;;;11.85;9.52;;;;;;;18.67;42.99;94696.94;5032184;28;20040;-80
2022/04/22 10:18:37;;;;;;;13.27;10.20;;;;;;;19.18;41.60;94694.09;5009961;28;20036;-79
2022/04/22 10:21:04;;;;;;;12.63;9.30;;;;;;;19.35;42.72;94686.81;5051609;28;20100;-79
2022/04/22 10:23:31;;;;;;;12.35;10.23;;;;;;;17.76;43.46;94699.06;5028042;28;20040;-79
2022/04/22 10:25:59;;;;;;;14.45;9.88;;;;;;;18.04;43.31;94695.53;5053363;28;20096;-80
2022/04/22 10:28:27;;;;;;;13.25;10.30;;;;;;;18.82;43.46;94693.72;5032072;28;20453;-82
2022/04/22 10:30:54;;;;;;;14.77;11.05;;;;;;;19.18;42.54;94702.91;5030819;28;20037;-79
2022/04/22 10:33:46;;;;;;;11.57;9.60;;;;;;;18.99;41.76;94694.44;5028354;28;20048;-79
2022/04/22 10:36:17;;;;;;;12.50;10.35;;;;;;;18.80;42.88;94696.59;5026984;28;20045;-80
2022/04/22 10:38:48;;;;;;;11.35;9.63;;;;;;;18.93;41.64;94700.75;5010992;28;20037;-79
2022/04/22 10:41:21;;;;;;;11.15;9.18;;;;;;;18.34;43.12;94696.00;5030893;28;20037;-79
2022/04/22 10:49:37;;;;;;;14.20;9.88;;;;;;;18.68;42.71;94687.09;5028351;28;20164;-80
2022/04/22 10:52:13;;;;;;;13.68;10.07;;;;;;;18.90;41.78;94695.94;5024720;28;20357;-79
2022/04/22 10:55:05;;;;;;;13.30;11.07;;;;;;;18.55;42.17;94699.72;5023329;28;20114;-79
2022/04/22 10:57:34;;;;;;;12.55;11.13;;;;;;;18.72;42.29;94689.06;5021310;28;20048;-79
2022/04/22 11:00:10;;;;;;;11.93;10.60;;;;;;;19.71;41.48;94682.63;5044858;28;20048;-79
2022/04/22 11:02:40;;;;;;;13.63;11.18;;;;;;;18.43;44.05;94683.06;5047257;28;20025;-78
2022/04/22 11:05:20;;;;;;;11.05;9.45;;;;;;;19.52;42.80;94682.19;5046150;28;20490;-77
2022/04/22 11:07:58;;;;;;;13.48;10.30;;;;;;;18.56;42.67;94685.38;5053231;28;20428;-77
2022/04/22 11:10:26;;;;;;;12.68;10.43;;;;;;;19.11;40.04;94686.28;5042947;28;20040;-78
2022/04/22 11:12:54;;;;;;;15.52;13.48;;;;;;;18.01;42.90;94699.50;5029262;28;20035;-77
2022/04/22 11:15:42;;;;;;;12.20;10.52;;;;;;;18.86;41.76;94684.16;5035767;28;20032;-78
2022/04/22 11:18:12;;;;;;;13.13;10.68;;;;;;;19.34;40.69;94689.72;5030651;28;20072;-78
2022/04/22 11:20:49;;;;;;;14.05;10.43;;;;;;;18.60;41.52;94689.13;5051986;28;20028;-79
2022/04/22 11:23:16;;;;;;;12.90;10.98;;;;;;;19.38;40.52;94690.81;5018148;28;20040;-78
2022/04/22 11:25:42;;;;;;;13.40;10.40;;;;;;;19.39;39.92;94693.25;5015408;28;20041;-79
2022/04/22 11:28:09;;;;;;;13.35;10.05;;;;;;;20.37;38.73;94678.84;5031428;28;20043;-78
2022/04/22 11:30:36;;;;;;;14.38;10.95;;;;;;;19.92;39.38;94685.47;5032466;28;20037;-78
2022/04/22 11:33:23;;;;;;;13.15;11.63;;;;;;;19.73;38.50;94685.06;5007434;28;20684;-78
2022/04/22 11:35:52;;;;;;;14.30;11.00;;;;;;;19.78;39.63;94674.41;5046881;28;20024;-78
2022/04/22 11:38:18;;;;;;;13.55;12.15;;;;;;;19.21;39.04;94682.94;5029337;28;20405;-78
2022/04/22 11:40:47;;;;;;;13.27;10.70;;;;;;;19.21;38.98;94683.72;5030055;28;20052;-78
2022/04/22 11:43:18;;;;;;;15.38;11.68;;;;;;;19.91;39.19;94679.31;5030523;28;20029;-78
2022/04/22 11:45:48;;;;;;;14.68;11.20;;;;;;;20.64;38.36;94673.41;5032236;28;20043;-79
2022/04/22 11:48:19;;;;;;;13.57;10.80;;;;;;;20.16;38.40;94664.56;5014278;28;20064;-79
2022/04/22 11:50:46;;;;;;;13.18;9.77;;;;;;;20.32;38.61;94673.44;5016900;28;20025;-77
2022/04/22 11:53:15;;;;;;;12.63;11.32;;;;;;;19.91;38.51;94675.84;5012796;28;20033;-78
2022/04/22 11:55:44;;;;;;;11.43;10.23;;;;;;;21.07;37.38;94664.19;5048772;28;20032;-79
2022/04/22 11:58:13;;;;;;;11.40;10.20;;;;;;;19.82;38.62;94672.88;5028444;28;20028;-77
2022/04/22 12:06:13;;;;;;;13.65;10.82;;;;;;;19.62;40.35;94683.34;5031821;28;20037;-78
2022/04/22 12:08:55;;;;;;;15.60;11.57;;;;;;;18.92;41.28;94685.84;5044709;28;20082;-79
2022/04/22 12:11:25;;;;;;;11.85;10.60;;;;;;;21.13;37.70;94668.50;5042975;28;20079;-78
2022/04/22 12:13:52;;;;;;;11.85;10.30;;;;;;;20.84;37.79;94675.34;5028770;28;20041;-78
2022/04/22 12:16:26;;;;;;;13.02;10.55;;;;;;;20.14;38.69;94664.81;5025277;28;20025;-78
2022/04/22 12:18:55;;;;;;;12.07;10.77;;;;;;;20.63;38.06;94669.13;5044671;28;20096;-77
2022/04/22 12:21:24;;;;;;;11.05;9.02;;;;;;;20.92;37.72;94661.47;5028766;28;20459;-79
2022/04/22 12:23:51;;;;;;;14.68;9.98;;;;;;;21.37;36.61;94658.16;5027150;28;20040;-78
2022/04/22 12:26:25;;;;;;;12.57;9.95;;;;;;;21.08;37.07;94659.66;5029674;28;20519;-78
2022/04/22 12:29:01;;;;;;;12.18;9.60;;;;;;;20.87;37.22;94661.47;5013627;28;20469;-78
2022/04/22 12:31:31;;;;;;;11.05;9.55;;;;;;;20.40;38.04;94655.09;5048726;28;20482;-79